Terminal Aerodrome Forecast
Issued by NWS

Current Version | Previous Version | Graphics & Text | Print | Product List | Glossary On
Versions: 1 2 3 4 5 6 7 8 9 10 11 12 13 14 15 16 17 18 19 20 21 22 23 24
000
FTUS41 KRLX 241700
TAFCKB
TAF
KCKB 241720Z 2418/2518 10005KT P6SM SCT040
     FM250000 00000KT P6SM SKC
     FM250900 00000KT 5SM BR SKC
     FM251000 00000KT 2SM BR SCT001
     FM251200 00000KT 4SM BR SKC
     FM251300 00000KT P6SM SKC
     FM251600 11005KT P6SM SKC=

USA.gov is the U.S. government's official web portal to all federal, state and local government web resources and services.